createdAt,value
2022-12-20T00:02:29.959Z,35.67
2022-12-20T00:05:17.071Z,31.03
2022-12-20T00:08:04.183Z,31.40
2022-12-20T00:10:51.136Z,32.07
2022-12-20T00:13:38.449Z,30.07
2022-12-20T00:16:27.552Z,32.67
2022-12-20T00:19:14.498Z,28.70
2022-12-20T00:22:01.678Z,29.40
2022-12-20T00:24:48.616Z,31.37
2022-12-20T00:27:35.600Z,28.17
2022-12-20T00:30:22.526Z,26.77
2022-12-20T00:33:10.028Z,28.67
2022-12-20T00:35:57.955Z,27.03
2022-12-20T00:38:49.035Z,22.70
2022-12-20T00:41:36.127Z,26.40
2022-12-20T00:44:23.110Z,24.17
2022-12-20T00:47:10.124Z,24.63
2022-12-20T00:49:57.135Z,20.93
2022-12-20T00:52:44.578Z,28.43
2022-12-20T00:55:31.493Z,23.60
2022-12-20T00:58:18.477Z,23.93
2022-12-20T01:01:07.278Z,22.27
2022-12-20T01:03:55.112Z,18.30
2022-12-20T01:06:42.221Z,22.80
2022-12-20T01:09:29.164Z,21.17
2022-12-20T01:12:16.157Z,18.83
2022-12-20T01:15:03.473Z,21.10
2022-12-20T01:17:51.460Z,21.37
2022-12-20T01:20:38.397Z,21.30
2022-12-20T01:23:25.362Z,19.30
2022-12-20T01:26:18.723Z,21.57
2022-12-20T01:29:05.845Z,22.40
2022-12-20T01:31:53.946Z,18.97
2022-12-20T01:34:41.030Z,18.03
2022-12-20T01:37:27.969Z,19.80
2022-12-20T01:40:15.526Z,20.70
2022-12-20T01:43:02.499Z,19.17
2022-12-20T01:45:50.613Z,19.53
2022-12-20T01:48:37.971Z,21.57
2022-12-20T01:51:25.785Z,17.67
2022-12-20T01:54:17.139Z,18.20
2022-12-20T01:57:08.340Z,19.47
2022-12-20T01:59:56.176Z,19.17
2022-12-20T02:02:45.762Z,19.50
2022-12-20T02:05:42.378Z,20.47
2022-12-20T02:08:29.414Z,19.73
2022-12-20T02:11:19.278Z,20.87
2022-12-20T02:14:16.235Z,21.17
2022-12-20T02:17:22.534Z,19.00
2022-12-20T02:20:51.031Z,21.57
2022-12-20T02:24:10.415Z,17.83
2022-12-20T02:27:15.443Z,16.93
2022-12-20T02:30:09.018Z,20.37
2022-12-20T02:33:02.073Z,18.87
2022-12-20T02:35:49.064Z,16.73
2022-12-20T02:38:38.256Z,17.83
2022-12-20T02:41:36.126Z,16.33
2022-12-20T02:44:46.052Z,15.73
2022-12-20T02:47:39.843Z,16.93
2022-12-20T02:50:28.777Z,15.53
2022-12-20T02:53:16.886Z,16.50
2022-12-20T02:56:09.841Z,16.50
2022-12-20T02:59:04.041Z,16.50
2022-12-20T03:01:56.195Z,17.17
2022-12-20T03:04:44.136Z,16.07
2022-12-20T03:07:34.437Z,18.70
2022-12-20T03:10:22.323Z,15.57
2022-12-20T03:13:09.792Z,17.53
2022-12-20T03:15:56.755Z,18.97
2022-12-20T03:18:46.045Z,16.00
2022-12-20T03:21:33.055Z,14.47
2022-12-20T03:24:20.060Z,14.70
2022-12-20T03:27:06.978Z,17.20
2022-12-20T03:29:54.361Z,15.73
2022-12-20T03:32:41.339Z,15.20
2022-12-20T03:35:28.262Z,16.13
2022-12-20T03:38:15.244Z,16.73
2022-12-20T03:41:02.346Z,15.73
2022-12-20T03:43:49.699Z,15.30
2022-12-20T03:46:36.709Z,19.63
2022-12-20T03:49:23.695Z,18.37
2022-12-20T03:52:13.079Z,19.17
2022-12-20T03:55:00.471Z,17.33
2022-12-20T03:57:47.711Z,19.07
2022-12-20T04:00:34.883Z,19.80
2022-12-20T04:03:21.923Z,19.90
2022-12-20T04:06:08.915Z,16.23
2022-12-20T04:08:55.933Z,18.97
2022-12-20T04:11:44.904Z,15.53
2022-12-20T04:14:32.018Z,16.43
2022-12-20T04:17:19.011Z,18.07
2022-12-20T04:20:19.054Z,16.27
2022-12-20T04:23:06.220Z,16.80
2022-12-20T04:25:53.140Z,18.93
2022-12-20T04:28:40.265Z,17.07
2022-12-20T04:31:27.372Z,17.17
2022-12-20T04:34:14.409Z,20.63
2022-12-20T04:37:01.809Z,16.70
2022-12-20T04:39:48.760Z,16.33
2022-12-20T04:42:35.724Z,21.30
2022-12-20T04:45:22.657Z,16.37
2022-12-20T04:48:46.212Z,29.10
2022-12-20T04:51:17.733Z,20.47
2022-12-20T04:54:04.884Z,20.17
2022-12-20T04:56:51.796Z,20.33
2022-12-20T04:59:38.735Z,23.13
2022-12-20T05:02:25.917Z,18.20
2022-12-20T05:05:14.004Z,17.60
2022-12-20T05:08:00.949Z,19.77
2022-12-20T05:10:48.840Z,15.37
2022-12-20T05:13:35.980Z,19.23
2022-12-20T05:16:22.934Z,16.00
2022-12-20T05:19:09.859Z,19.50
2022-12-20T05:22:15.842Z,18.77
2022-12-20T05:25:21.308Z,20.17
2022-12-20T05:28:08.335Z,21.57
2022-12-20T05:30:55.600Z,18.63
2022-12-20T05:33:42.615Z,18.77
2022-12-20T05:36:29.593Z,20.60
2022-12-20T05:39:16.705Z,17.90
2022-12-20T05:42:03.770Z,18.10
2022-12-20T05:44:51.503Z,21.20
2022-12-20T05:47:38.994Z,20.10
2022-12-20T05:50:26.232Z,18.80
2022-12-20T05:53:14.580Z,20.53
2022-12-20T05:56:01.654Z,22.83
2022-12-20T05:58:48.634Z,17.37
2022-12-20T06:01:35.814Z,18.87
2022-12-20T06:04:23.058Z,25.50
2022-12-20T06:07:10.127Z,20.57
2022-12-20T06:09:57.408Z,23.30
2022-12-20T06:12:44.318Z,25.77
2022-12-20T06:15:31.606Z,24.27
2022-12-20T06:18:18.570Z,21.90
2022-12-20T06:21:05.647Z,20.00
2022-12-20T06:23:52.566Z,24.20
2022-12-20T06:26:39.903Z,22.97
2022-12-20T06:29:26.889Z,26.37
2022-12-20T06:32:13.851Z,24.53
2022-12-20T06:35:00.885Z,25.63
2022-12-20T06:37:47.809Z,24.33
2022-12-20T06:40:34.844Z,28.33
2022-12-20T06:43:21.780Z,27.03
2022-12-20T06:46:08.958Z,24.90
2022-12-20T06:48:59.267Z,25.17
2022-12-20T06:51:46.207Z,25.80
2022-12-20T06:54:33.166Z,23.27
2022-12-20T06:57:20.140Z,22.67
2022-12-20T07:00:08.488Z,23.33
2022-12-20T07:02:55.717Z,27.80
2022-12-20T07:05:42.983Z,26.53
2022-12-20T07:08:29.970Z,23.23
2022-12-20T07:11:16.992Z,23.17
2022-12-20T07:14:04.029Z,31.02
2022-12-20T07:16:51.043Z,27.53
2022-12-20T07:19:38.143Z,25.00
2022-12-20T07:22:25.077Z,28.87
2022-12-20T07:25:12.710Z,25.53
2022-12-20T07:27:59.680Z,34.90
2022-12-20T07:30:46.642Z,26.57
2022-12-20T07:33:34.041Z,32.77
2022-12-20T07:36:21.027Z,30.17
2022-12-20T07:39:08.277Z,32.53
2022-12-20T07:41:55.746Z,24.40
2022-12-20T07:44:43.273Z,28.93
2022-12-20T07:47:30.702Z,32.70
2022-12-20T07:50:17.740Z,28.90
2022-12-20T07:53:06.827Z,35.77
2022-12-20T07:55:54.868Z,28.67
2022-12-20T07:58:43.376Z,28.90
2022-12-20T08:01:31.718Z,28.90
2022-12-20T08:04:23.483Z,28.23
2022-12-20T08:07:11.137Z,38.20
2022-12-20T08:09:58.358Z,50.97
2022-12-20T08:12:47.418Z,49.47
2022-12-20T08:15:35.797Z,42.43
2022-12-20T08:18:22.762Z,41.33
2022-12-20T08:21:12.854Z,46.83
2022-12-20T08:23:59.860Z,32.97
2022-12-20T08:26:46.824Z,34.43
2022-12-20T08:29:33.797Z,30.90
2022-12-20T08:32:21.003Z,31.10
2022-12-20T08:35:08.699Z,36.93
2022-12-20T08:37:55.694Z,35.53
2022-12-20T08:40:42.658Z,38.30
2022-12-20T08:43:30.377Z,33.37
2022-12-20T08:46:17.422Z,33.53
2022-12-20T08:49:05.496Z,39.17
2022-12-20T08:51:52.529Z,34.47
2022-12-20T08:54:39.507Z,31.47
2022-12-20T08:57:26.461Z,29.87
2022-12-20T09:00:14.299Z,29.13
2022-12-20T09:03:02.139Z,27.67
2022-12-20T09:05:49.385Z,31.30
2022-12-20T09:08:37.510Z,30.80
2022-12-20T09:11:26.052Z,32.80
2022-12-20T09:14:13.080Z,28.77
2022-12-20T09:17:00.086Z,32.40
2022-12-20T09:19:47.039Z,27.90
2022-12-20T09:22:33.985Z,26.07
2022-12-20T09:25:21.770Z,28.80
2022-12-20T09:28:08.769Z,25.70
2022-12-20T09:31:05.162Z,26.90
2022-12-20T09:33:57.811Z,25.30
2022-12-20T09:36:44.888Z,26.83
2022-12-20T09:39:31.930Z,23.60
2022-12-20T09:42:25.690Z,23.43
2022-12-20T09:45:16.541Z,24.67
2022-12-20T09:48:05.712Z,22.20
2022-12-20T09:51:21.556Z,22.50
2022-12-20T09:54:37.596Z,21.37
2022-12-20T09:57:44.794Z,20.47
2022-12-20T10:00:40.345Z,23.50
2022-12-20T10:03:33.379Z,17.07
2022-12-20T10:06:41.568Z,19.33
2022-12-20T10:10:06.793Z,18.50
2022-12-20T10:13:05.537Z,17.37
2022-12-20T10:16:21.457Z,16.77
2022-12-20T10:19:16.827Z,17.57
2022-12-20T10:22:23.521Z,18.43
2022-12-20T10:25:23.115Z,16.60
2022-12-20T10:28:15.304Z,15.17
2022-12-20T10:31:08.074Z,13.87
2022-12-20T10:33:55.734Z,15.10
2022-12-20T10:36:42.814Z,17.37
2022-12-20T10:39:42.628Z,12.90
2022-12-20T10:42:40.073Z,17.97
2022-12-20T10:45:38.629Z,18.80
2022-12-20T10:48:33.497Z,24.47
2022-12-20T10:51:22.555Z,26.13
2022-12-20T10:54:22.538Z,25.53
2022-12-20T10:57:20.971Z,30.17
2022-12-20T11:00:26.512Z,24.30
2022-12-20T11:03:23.286Z,23.97
2022-12-20T11:06:16.552Z,27.00
2022-12-20T11:09:23.024Z,22.43
2022-12-20T11:12:14.674Z,14.77
2022-12-20T11:15:20.815Z,16.10
2022-12-20T11:18:29.925Z,16.77
2022-12-20T11:21:32.935Z,17.10
2022-12-20T11:24:39.541Z,18.97
2022-12-20T11:27:33.076Z,19.70
2022-12-20T11:30:24.365Z,13.30
2022-12-20T11:34:01.852Z,13.80
2022-12-20T11:37:09.350Z,16.53
2022-12-20T11:40:47.548Z,12.97
2022-12-20T11:44:27.576Z,14.20
2022-12-20T11:47:18.846Z,15.07
2022-12-20T11:50:56.783Z,12.13
2022-12-20T11:53:54.215Z,9.03
2022-12-20T11:56:47.036Z,14.70
2022-12-20T11:59:50.878Z,13.97
2022-12-20T12:02:42.575Z,10.10
2022-12-20T12:05:47.716Z,9.87
2022-12-20T12:08:46.836Z,12.63
2022-12-20T12:14:56.225Z,11.23
2022-12-20T12:17:54.685Z,10.53
2022-12-20T12:21:19.063Z,10.30
2022-12-20T12:24:29.212Z,10.07
2022-12-20T12:27:27.398Z,11.10
2022-12-20T12:30:16.031Z,13.97
2022-12-20T12:33:11.311Z,12.57
2022-12-20T12:36:04.008Z,14.00
2022-12-20T12:39:18.881Z,14.13
2022-12-20T12:42:12.434Z,12.50
2022-12-20T12:45:20.433Z,9.80
2022-12-20T12:48:25.070Z,9.53
2022-12-20T12:51:14.604Z,13.70
2022-12-20T12:54:22.907Z,9.77
2022-12-20T12:57:14.365Z,11.23
2022-12-20T13:00:02.757Z,10.07
2022-12-20T13:02:51.519Z,10.30
2022-12-20T13:05:38.617Z,10.83
2022-12-20T13:08:50.230Z,11.03
2022-12-20T13:11:46.279Z,16.27
2022-12-20T13:14:37.195Z,23.70
2022-12-20T13:17:26.542Z,23.50
2022-12-20T13:20:21.074Z,26.83
2022-12-20T13:23:08.064Z,23.00
2022-12-20T13:25:57.307Z,9.87
2022-12-20T13:28:48.977Z,12.70
2022-12-20T13:31:36.662Z,11.73
2022-12-20T13:34:55.731Z,11.97
2022-12-20T13:37:54.997Z,11.57
2022-12-20T13:40:43.991Z,13.00
2022-12-20T13:43:37.683Z,12.53
2022-12-20T13:46:48.306Z,10.53
2022-12-20T13:49:39.583Z,10.40
2022-12-20T13:52:31.229Z,12.03
2022-12-20T13:55:48.749Z,15.47
2022-12-20T13:58:35.861Z,10.93
2022-12-20T14:01:25.134Z,10.57
2022-12-20T14:04:12.290Z,9.40
2022-12-20T14:07:01.413Z,10.93
2022-12-20T14:09:56.715Z,10.63
2022-12-20T14:12:46.222Z,12.90
2022-12-20T14:15:35.224Z,11.53
2022-12-20T14:18:27.508Z,10.60
2022-12-20T14:21:15.033Z,11.53
2022-12-20T14:24:03.184Z,11.33
2022-12-20T14:26:52.623Z,11.87
2022-12-20T14:29:40.537Z,14.40
2022-12-20T14:32:28.095Z,14.77
2022-12-20T14:35:20.212Z,11.43
2022-12-20T14:38:22.234Z,13.23
2022-12-20T14:41:31.688Z,11.20
2022-12-20T14:44:23.269Z,12.97
2022-12-20T14:47:28.229Z,12.03
2022-12-20T14:50:24.374Z,11.87
2022-12-20T14:53:28.637Z,10.33
2022-12-20T14:56:22.615Z,13.93
2022-12-20T14:59:24.632Z,12.20
2022-12-20T15:03:02.460Z,21.77
2022-12-20T15:05:52.311Z,29.73
2022-12-20T15:08:40.409Z,30.47
2022-12-20T15:11:27.395Z,42.37
2022-12-20T15:14:31.526Z,32.03
2022-12-20T15:17:18.526Z,39.30
2022-12-20T15:20:06.570Z,29.57
2022-12-20T15:22:53.905Z,37.70
2022-12-20T15:25:43.669Z,18.63
2022-12-20T15:28:32.078Z,20.63
2022-12-20T15:31:22.277Z,13.60
2022-12-20T15:34:30.891Z,17.53
2022-12-20T15:37:19.047Z,14.23
2022-12-20T15:40:07.233Z,15.67
2022-12-20T15:42:54.209Z,11.90
2022-12-20T15:45:43.257Z,13.37
2022-12-20T15:48:30.449Z,13.87
2022-12-20T15:51:38.047Z,11.67
2022-12-20T15:54:28.095Z,16.73
2022-12-20T15:57:15.902Z,14.40
2022-12-20T16:00:04.378Z,14.67
2022-12-20T16:02:51.873Z,15.13
2022-12-20T16:05:38.911Z,15.90
2022-12-20T16:08:25.911Z,12.50
2022-12-20T16:11:25.064Z,14.83
2022-12-20T16:14:21.865Z,12.50
2022-12-20T16:17:15.967Z,11.50
2022-12-20T16:20:03.529Z,17.83
2022-12-20T16:22:50.692Z,13.20
2022-12-20T16:25:37.769Z,11.50
2022-12-20T16:28:24.749Z,13.43
2022-12-20T16:31:25.049Z,13.13
2022-12-20T16:34:16.936Z,11.47
2022-12-20T16:37:04.873Z,14.13
2022-12-20T16:39:51.813Z,14.77
2022-12-20T16:42:38.792Z,13.50
2022-12-20T16:45:31.371Z,13.33
2022-12-20T16:48:18.791Z,15.30
2022-12-20T16:51:44.693Z,15.17
2022-12-20T16:54:31.983Z,13.90
2022-12-20T16:57:19.427Z,14.37
2022-12-20T17:00:07.204Z,13.93
2022-12-20T17:02:54.386Z,14.70
2022-12-20T17:05:41.449Z,12.13
2022-12-20T17:11:32.757Z,11.17
2022-12-20T17:14:20.267Z,11.43
2022-12-20T17:17:07.694Z,14.67
2022-12-20T17:19:54.668Z,12.67
2022-12-20T17:22:42.088Z,14.63
2022-12-20T17:25:32.481Z,13.57
2022-12-20T17:28:19.405Z,13.60
2022-12-20T17:31:24.627Z,13.37
2022-12-20T17:34:24.105Z,13.13
2022-12-20T17:37:11.027Z,14.80
2022-12-20T17:39:58.105Z,14.40
2022-12-20T17:42:45.496Z,17.37
2022-12-20T17:45:36.080Z,16.90
2022-12-20T17:48:27.406Z,15.10
2022-12-20T17:51:23.101Z,14.53
2022-12-20T17:54:18.449Z,17.88
2022-12-20T17:57:05.542Z,14.60
2022-12-20T17:59:52.524Z,17.27
2022-12-20T18:02:40.507Z,16.47
2022-12-20T18:05:27.535Z,12.63
2022-12-20T18:08:14.505Z,15.07
2022-12-20T18:11:01.439Z,18.00
2022-12-20T18:13:54.320Z,18.50
2022-12-20T18:16:41.710Z,15.57
2022-12-20T18:19:28.753Z,14.50
2022-12-20T18:22:15.821Z,12.90
2022-12-20T18:25:06.844Z,17.30
2022-12-20T18:27:53.993Z,13.23
2022-12-20T18:30:41.826Z,15.73
2022-12-20T18:33:28.898Z,16.73
2022-12-20T18:36:18.811Z,12.63
2022-12-20T18:39:07.823Z,15.23
2022-12-20T18:41:54.792Z,11.90
2022-12-20T18:44:41.730Z,16.60
2022-12-20T18:47:32.180Z,12.13
2022-12-20T18:50:19.118Z,20.17
2022-12-20T18:53:06.045Z,15.60
2022-12-20T18:55:52.999Z,15.77
2022-12-20T18:58:40.323Z,21.07
2022-12-20T19:01:30.242Z,17.80
2022-12-20T19:04:24.087Z,14.80
2022-12-20T19:07:11.865Z,13.87
2022-12-20T19:14:17.516Z,16.30
2022-12-20T19:17:05.141Z,13.53
2022-12-20T19:19:52.314Z,13.37
2022-12-20T19:22:39.616Z,18.57
2022-12-20T19:25:26.822Z,17.83
2022-12-20T19:28:13.875Z,14.57
2022-12-20T19:31:15.703Z,17.00
2022-12-20T19:34:10.439Z,15.17
2022-12-20T19:36:57.445Z,15.03
2022-12-20T19:39:44.395Z,15.83
2022-12-20T19:42:31.334Z,16.27
2022-12-20T19:45:18.361Z,17.83
2022-12-20T19:48:05.525Z,17.87
2022-12-20T19:51:01.784Z,17.07
2022-12-20T19:53:50.891Z,14.47
2022-12-20T19:56:37.864Z,18.13
2022-12-20T19:59:25.166Z,16.57
2022-12-20T20:02:15.846Z,20.73
2022-12-20T20:05:03.102Z,16.10
2022-12-20T20:07:50.836Z,20.30
2022-12-20T20:10:37.769Z,17.50
2022-12-20T20:13:25.727Z,15.43
2022-12-20T20:16:16.926Z,19.83
2022-12-20T20:19:09.557Z,17.77
2022-12-20T20:21:56.495Z,17.60
2022-12-20T20:24:44.005Z,17.03
2022-12-20T20:27:30.985Z,16.03
2022-12-20T20:30:18.043Z,22.80
2022-12-20T20:33:05.045Z,22.73
2022-12-20T20:36:00.669Z,22.60
2022-12-20T20:38:48.635Z,19.73
2022-12-20T20:41:35.623Z,23.30
2022-12-20T20:44:22.552Z,22.97
2022-12-20T20:47:10.295Z,22.20
2022-12-20T20:49:57.368Z,30.07
2022-12-20T20:52:44.371Z,48.40
2022-12-20T20:55:31.352Z,30.33
2022-12-20T20:58:18.331Z,22.97
2022-12-20T21:01:08.418Z,24.80
2022-12-20T21:03:56.748Z,26.43
2022-12-20T21:06:43.781Z,25.80
2022-12-20T21:09:32.094Z,25.77
2022-12-20T21:12:20.169Z,29.07
2022-12-20T21:15:24.723Z,25.03
2022-12-20T21:18:12.927Z,24.57
2022-12-20T21:21:04.614Z,32.00
2022-12-20T21:23:52.673Z,25.93
2022-12-20T21:26:39.686Z,28.07
2022-12-20T21:29:26.657Z,27.13
2022-12-20T21:32:13.625Z,27.70
2022-12-20T21:35:00.626Z,28.27
2022-12-20T21:37:47.544Z,30.50
2022-12-20T21:40:35.104Z,27.93
2022-12-20T21:43:22.043Z,30.03
2022-12-20T21:46:12.214Z,28.10
2022-12-20T21:49:00.372Z,29.17
2022-12-20T21:51:47.425Z,31.47
2022-12-20T21:54:34.377Z,30.43
2022-12-20T21:57:21.312Z,33.67
2022-12-20T22:00:08.854Z,27.60
2022-12-20T22:02:55.909Z,28.03
2022-12-20T22:05:50.753Z,30.27
2022-12-20T22:08:37.812Z,29.93
2022-12-20T22:11:25.239Z,33.07
2022-12-20T22:14:13.604Z,34.07
2022-12-20T22:17:00.575Z,30.73
2022-12-20T22:19:47.482Z,32.07
2022-12-20T22:22:34.455Z,29.63
2022-12-20T22:25:21.516Z,30.47
2022-12-20T22:28:08.833Z,29.20
2022-12-20T22:30:56.375Z,28.77
2022-12-20T22:33:43.816Z,29.60
2022-12-20T22:36:30.875Z,27.07
2022-12-20T22:39:17.904Z,28.20
2022-12-20T22:42:04.902Z,28.67
2022-12-20T22:44:51.921Z,29.53
2022-12-20T22:50:45.527Z,31.00
2022-12-20T22:53:33.791Z,33.83
2022-12-20T22:56:21.673Z,31.43
2022-12-20T22:59:08.709Z,29.67
2022-12-20T23:01:55.851Z,32.30
2022-12-20T23:04:42.926Z,28.90
2022-12-20T23:07:29.854Z,28.77
2022-12-20T23:10:45.690Z,28.40
2022-12-20T23:13:51.913Z,28.60
2022-12-20T23:16:38.876Z,28.83
2022-12-20T23:19:26.457Z,26.40
2022-12-20T23:22:31.902Z,31.80
2022-12-20T23:25:20.936Z,26.23
2022-12-20T23:28:07.852Z,27.43
2022-12-20T23:30:54.764Z,31.53
2022-12-20T23:33:43.278Z,31.03
2022-12-20T23:36:33.117Z,26.83
2022-12-20T23:39:20.076Z,27.23
2022-12-20T23:42:07.039Z,26.10
2022-12-20T23:44:53.972Z,25.90
2022-12-20T23:47:40.933Z,23.97
2022-12-20T23:50:27.880Z,25.20
2022-12-20T23:53:14.804Z,22.77
2022-12-20T23:56:10.217Z,22.97
2022-12-20T23:58:57.634Z,21.40
